Time;durP1;ratioP1;P1;durP2;ratioP2;P2;SDS_P1;SDS_P2;PMS_P1;PMS_P2;Temp;Humidity;BMP_temperature;BMP_pressure;BME280_temperature;BME280_humidity;BME280_pressure;Samples;Min_cycle;Max_cycle;Signal;HPM_P1;HPM_P2
2021/08/02 00:01:47;;;;;;;1.90;1.38;;;;;;;15.87;66.04;99406.19;10536156;28;20093;-83
2021/08/02 00:06:51;;;;;;;2.20;1.30;;;;;;;15.95;65.91;99415.47;10553794;28;20071;-83
2021/08/02 00:12:04;;;;;;;1.98;1.60;;;;;;;15.88;66.31;99405.22;10534858;28;20097;-82
2021/08/02 00:17:06;;;;;;;2.55;1.50;;;;;;;15.84;66.90;99408.19;10554323;28;20036;-82
2021/08/02 00:22:07;;;;;;;1.83;1.40;;;;;;;15.83;66.69;99412.63;10536452;28;20117;-83
2021/08/02 00:27:10;;;;;;;2.20;1.63;;;;;;;15.78;66.92;99409.41;10556039;28;20120;-83
2021/08/02 00:32:13;;;;;;;2.03;1.65;;;;;;;15.67;67.62;99417.22;10556360;28;20540;-82
2021/08/02 00:37:21;;;;;;;2.55;1.65;;;;;;;15.80;67.46;99406.66;10556218;28;20036;-81
2021/08/02 00:42:59;;;;;;;2.83;1.73;;;;;;;15.84;67.65;99418.78;10557275;28;20040;-82
2021/08/02 00:48:09;;;;;;;1.75;1.65;;;;;;;15.69;68.51;99423.25;10556427;28;20435;-82
2021/08/02 00:53:14;;;;;;;3.63;1.88;;;;;;;15.76;68.84;99423.69;10536657;28;20482;-81
2021/08/02 00:58:22;;;;;;;1.90;1.73;;;;;;;15.87;68.21;99423.88;10534649;28;20424;-82
2021/08/02 01:03:25;;;;;;;2.20;2.00;;;;;;;15.82;69.01;99434.78;10553145;28;20063;-84
2021/08/02 01:08:30;;;;;;;3.28;2.25;;;;;;;15.85;68.20;99426.66;10535371;28;20193;-83
2021/08/02 01:13:35;;;;;;;1.92;1.73;;;;;;;16.11;67.46;99434.72;10532377;28;20051;-83
2021/08/02 01:18:39;;;;;;;3.35;2.05;;;;;;;16.19;67.25;99432.44;10552108;28;20040;-83
2021/08/02 01:23:46;;;;;;;2.35;1.60;;;;;;;16.16;67.35;99432.66;10534372;28;20113;-82
2021/08/02 01:29:26;;;;;;;2.50;1.80;;;;;;;16.11;67.79;99435.59;10552263;28;20047;-83
2021/08/02 01:34:28;;;;;;;1.83;1.73;;;;;;;16.06;67.83;99436.81;10551744;28;20032;-82
2021/08/02 01:39:35;;;;;;;2.20;2.00;;;;;;;16.18;67.38;99437.84;10552652;28;20066;-82
2021/08/02 01:44:37;;;;;;;6.22;1.90;;;;;;;16.14;67.61;99440.69;10535067;28;20258;-83
2021/08/02 01:50:03;;;;;;;2.58;1.60;;;;;;;16.01;68.20;99441.56;10514033;28;1133716;-83
2021/08/02 01:55:09;;;;;;;3.90;1.50;;;;;;;16.04;68.02;99430.78;10535372;28;20121;-82
2021/08/02 02:00:13;;;;;;;8.23;1.77;;;;;;;15.73;68.99;99442.47;10536816;28;20150;-82
2021/08/02 02:05:21;;;;;;;3.67;1.65;;;;;;;15.73;69.26;99448.59;10560835;28;20058;-83
2021/08/02 02:10:29;;;;;;;4.15;1.70;;;;;;;15.61;69.67;99458.13;10544894;28;20044;-83
2021/08/02 02:15:32;;;;;;;2.25;1.70;;;;;;;15.45;70.00;99467.97;10554827;28;20039;-82
2021/08/02 02:20:36;;;;;;;2.13;1.92;;;;;;;15.49;70.19;99471.25;10557261;28;20134;-83
2021/08/02 02:25:41;;;;;;;2.05;1.40;;;;;;;15.40;70.49;99483.28;10546025;28;20036;-81
2021/08/02 02:30:52;;;;;;;3.88;2.15;;;;;;;15.36;70.85;99487.91;10566035;28;20088;-83
2021/08/02 02:35:54;;;;;;;2.35;2.05;;;;;;;15.45;70.23;99489.16;10549669;28;20048;-84
2021/08/02 02:40:57;;;;;;;2.63;1.80;;;;;;;15.62;69.36;99496.06;10574686;28;20153;-83
2021/08/02 02:46:00;;;;;;;2.17;1.70;;;;;;;15.67;69.08;99483.44;10571696;28;20108;-82
2021/08/02 02:51:02;;;;;;;3.50;2.05;;;;;;;15.57;69.35;99485.75;10537886;28;20152;-84
2021/08/02 02:56:08;;;;;;;1.65;1.55;;;;;;;15.56;69.56;99488.50;10584404;22;20055;-85
2021/08/02 03:01:19;;;;;;;1.90;1.60;;;;;;;15.52;69.75;99505.53;10559674;28;20052;-83
2021/08/02 03:06:27;;;;;;;3.55;1.60;;;;;;;15.60;69.21;99511.22;10521126;28;20037;-84
2021/08/02 03:11:30;;;;;;;2.47;1.52;;;;;;;15.54;69.94;99512.44;10525872;28;20032;-84
2021/08/02 03:16:32;;;;;;;2.08;1.75;;;;;;;15.57;69.74;99519.34;10504524;28;20089;-84
2021/08/02 03:21:34;;;;;;;1.73;1.60;;;;;;;15.64;69.34;99523.38;10497033;28;20219;-84
2021/08/02 03:26:59;;;;;;;2.67;1.50;;;;;;;15.85;68.77;99526.50;10483428;28;20048;-84
2021/08/02 03:32:09;;;;;;;2.22;1.63;;;;;;;15.86;68.82;99537.00;10479259;28;20144;-84
2021/08/02 03:37:14;;;;;;;2.13;1.52;;;;;;;15.88;69.16;99544.84;10495409;28;20036;-85
2021/08/02 03:42:17;;;;;;;2.10;1.90;;;;;;;15.88;68.94;99542.19;10492384;28;20068;-85
2021/08/02 03:47:19;;;;;;;2.17;1.73;;;;;;;15.92;68.74;99550.81;10495026;28;20052;-84
2021/08/02 03:52:21;;;;;;;3.38;1.77;;;;;;;15.79;69.70;99559.50;10494728;28;20466;-84
2021/08/02 03:57:22;;;;;;;2.10;1.95;;;;;;;15.71;70.68;99567.06;10495024;28;20520;-84
2021/08/02 04:02:24;;;;;;;3.75;2.00;;;;;;;15.55;73.20;99574.22;10496233;28;20045;-84
2021/08/02 04:07:26;;;;;;;4.07;2.50;;;;;;;15.55;74.86;99588.31;10479578;28;20045;-84
2021/08/02 04:12:28;;;;;;;3.53;2.85;;;;;;;15.39;77.30;99587.50;10498901;28;20049;-84
2021/08/02 04:17:30;;;;;;;3.95;3.05;;;;;;;15.19;78.87;99593.13;10493946;28;20116;-84
2021/08/02 04:22:32;;;;;;;3.33;3.08;;;;;;;15.21;79.34;99596.53;10492573;28;20059;-85
2021/08/02 04:27:35;;;;;;;3.33;3.03;;;;;;;15.25;78.90;99603.34;10492519;28;20105;-84
2021/08/02 04:32:43;;;;;;;4.07;3.65;;;;;;;15.22;79.46;99603.53;10477014;28;20048;-84
2021/08/02 04:37:46;;;;;;;3.75;3.45;;;;;;;15.13;80.54;99611.03;10509083;28;20040;-85
2021/08/02 04:42:47;;;;;;;5.68;3.25;;;;;;;15.33;79.15;99614.34;10490415;28;20391;-84
2021/08/02 04:47:50;;;;;;;3.60;3.30;;;;;;;15.14;80.45;99612.78;10487208;28;20055;-83
2021/08/02 04:52:52;;;;;;;4.57;3.60;;;;;;;15.17;81.51;99624.13;10484429;28;20187;-82
2021/08/02 04:57:53;;;;;;;3.92;3.35;;;;;;;15.34;79.74;99618.72;10485881;28;20044;-83
2021/08/02 05:02:55;;;;;;;8.30;3.72;;;;;;;15.27;80.53;99623.53;10469293;28;20143;-83
2021/08/02 05:07:57;;;;;;;4.85;3.80;;;;;;;15.42;80.41;99631.50;10503466;28;20084;-84
2021/08/02 05:12:58;;;;;;;4.75;3.80;;;;;;;15.77;78.41;99640.06;10473802;28;20048;-83
2021/08/02 05:18:00;;;;;;;4.53;4.13;;;;;;;15.63;79.46;99635.56;10484385;28;20056;-83
2021/08/02 05:23:01;;;;;;;3.95;3.65;;;;;;;15.84;78.38;99631.63;10503288;28;20041;-83
2021/08/02 05:28:03;;;;;;;4.68;4.38;;;;;;;15.85;78.72;99640.47;10501868;28;20048;-83
2021/08/02 05:33:06;;;;;;;4.95;4.65;;;;;;;15.78;79.40;99639.97;10502683;28;20494;-82
2021/08/02 05:38:08;;;;;;;6.38;5.88;;;;;;;15.94;77.69;99637.28;10485120;28;20423;-83
2021/08/02 05:43:09;;;;;;;6.60;6.00;;;;;;;16.03;77.00;99639.38;10503933;28;20416;-83
2021/08/02 05:48:11;;;;;;;7.78;5.85;;;;;;;16.00;78.31;99644.84;10505644;28;20044;-83
2021/08/02 05:53:13;;;;;;;6.93;6.25;;;;;;;16.24;75.88;99645.13;10509066;28;20052;-84
2021/08/02 05:58:15;;;;;;;7.57;6.88;;;;;;;16.42;76.85;99637.84;10500752;28;20071;-83
2021/08/02 06:03:16;;;;;;;8.38;7.68;;;;;;;16.65;74.95;99642.59;10501015;28;20405;-83
2021/08/02 06:08:18;;;;;;;7.68;7.18;;;;;;;16.68;76.00;99646.81;10485550;28;20051;-82
2021/08/02 06:13:19;;;;;;;9.27;8.65;;;;;;;17.00;73.83;99646.59;10482994;28;20129;-83
2021/08/02 06:18:21;;;;;;;12.13;9.02;;;;;;;16.95;73.87;99646.91;10483154;28;20474;-83
2021/08/02 06:23:22;;;;;;;10.88;10.10;;;;;;;16.84;74.79;99660.03;10485830;28;20092;-82
2021/08/02 06:28:24;;;;;;;12.35;11.48;;;;;;;16.75;75.16;99671.22;10483800;28;20405;-82
2021/08/02 06:33:26;;;;;;;12.57;11.88;;;;;;;16.71;75.48;99661.72;10488270;28;20059;-82
2021/08/02 06:38:32;;;;;;;12.60;11.75;;;;;;;16.85;74.09;99659.91;10490350;28;20063;-83
2021/08/02 06:43:33;;;;;;;12.50;11.80;;;;;;;16.64;75.55;99666.53;10492617;28;20040;-83
2021/08/02 06:48:40;;;;;;;12.32;11.38;;;;;;;16.97;74.76;99670.72;10515422;28;20102;-81
2021/08/02 06:53:41;;;;;;;11.85;10.90;;;;;;;17.10;72.61;99672.50;10511457;28;20049;-81
2021/08/02 06:58:43;;;;;;;11.68;10.90;;;;;;;16.96;74.22;99672.53;10493454;28;20049;-83
2021/08/02 07:03:45;;;;;;;11.65;11.00;;;;;;;17.12;72.89;99678.53;10497703;28;20085;-83
2021/08/02 07:08:51;;;;;;;11.20;10.40;;;;;;;17.14;72.56;99679.31;10499320;28;20504;-84
2021/08/02 07:13:54;;;;;;;11.82;11.13;;;;;;;17.08;72.94;99679.69;10502836;28;20055;-83
2021/08/02 07:18:56;;;;;;;13.00;12.20;;;;;;;16.71;75.64;99691.75;10498260;28;20059;-81
2021/08/02 07:23:57;;;;;;;13.27;12.52;;;;;;;16.52;77.21;99707.13;10496018;28;20056;-82
2021/08/02 07:29:01;;;;;;;13.50;12.60;;;;;;;16.48;78.74;99710.91;10495684;28;20110;-82
2021/08/02 07:34:02;;;;;;;12.52;11.80;;;;;;;16.31;80.43;99712.78;10523532;28;20095;-81
2021/08/02 07:39:04;;;;;;;11.57;10.88;;;;;;;16.12;82.05;99712.19;10504220;28;20494;-83
2021/08/02 07:44:06;;;;;;;12.38;11.55;;;;;;;16.18;82.98;99719.78;10514525;28;20094;-82
2021/08/02 07:49:07;;;;;;;10.77;10.18;;;;;;;16.28;82.08;99728.88;10496415;28;20071;-84
2021/08/02 07:54:10;;;;;;;12.55;11.93;;;;;;;16.27;80.76;99729.81;10497091;28;20052;-83
2021/08/02 07:59:12;;;;;;;13.98;13.07;;;;;;;16.42;80.32;99735.16;10476601;28;20102;-82
2021/08/02 08:04:14;;;;;;;4.05;3.75;;;;;;;16.13;77.67;99735.97;10510074;28;20473;-84
2021/08/02 08:09:15;;;;;;;2.63;2.25;;;;;;;15.72;79.73;99738.38;10511768;28;20113;-83
2021/08/02 08:14:17;;;;;;;1.95;1.80;;;;;;;15.70;79.63;99742.06;10496837;28;20114;-82
2021/08/02 08:19:18;;;;;;;2.28;1.75;;;;;;;15.67;80.30;99750.16;10514719;28;20059;-83
2021/08/02 08:24:20;;;;;;;1.35;1.08;;;;;;;15.81;77.86;99760.84;10508960;28;20104;-84
2021/08/02 08:29:22;;;;;;;1.00;0.90;;;;;;;15.60;78.32;99757.59;10510862;28;20128;-83
2021/08/02 08:34:24;;;;;;;1.85;1.55;;;;;;;15.42;82.38;99767.44;10488194;28;20044;-80
2021/08/02 08:39:25;;;;;;;1.58;1.23;;;;;;;15.69;82.87;99765.06;10495606;28;20131;-82
2021/08/02 08:44:28;;;;;;;1.00;0.90;;;;;;;16.18;78.57;99764.84;10505392;28;20064;-82
2021/08/02 08:49:30;;;;;;;1.10;0.80;;;;;;;16.13;78.04;99774.88;10521307;28;20040;-81
2021/08/02 08:54:33;;;;;;;1.08;0.95;;;;;;;16.36;76.50;99770.88;10536865;22;20047;-83
2021/08/02 09:00:18;;;;;;;1.20;1.10;;;;;;;16.18;80.12;99778.09;10548348;28;20059;-82
2021/08/02 09:05:20;;;;;;;1.63;1.52;;;;;;;16.51;79.57;99780.56;10422782;28;20046;-83
2021/08/02 09:10:23;;;;;;;2.85;1.77;;;;;;;16.98;79.18;99783.94;10424847;28;20049;-83
2021/08/02 09:15:38;;;;;;;1.90;1.80;;;;;;;17.31;77.74;99776.50;10421163;28;20160;-83
2021/08/02 09:20:40;;;;;;;1.50;1.40;;;;;;;17.50;75.63;99780.66;10407023;28;20124;-83
2021/08/02 09:25:47;;;;;;;1.65;1.55;;;;;;;17.84;75.58;99779.31;10438889;28;20111;-80
2021/08/02 09:31:00;;;;;;;1.70;1.60;;;;;;;18.58;72.58;99773.41;10442919;28;20065;-80
2021/08/02 09:36:02;;;;;;;1.50;1.40;;;;;;;18.56;69.76;99779.81;10415356;28;20094;-79
2021/08/02 09:41:03;;;;;;;1.67;1.58;;;;;;;18.93;68.52;99771.94;10492117;28;20466;-81
2021/08/02 09:46:05;;;;;;;1.70;1.30;;;;;;;19.40;69.33;99768.56;10506893;28;20186;-81
2021/08/02 09:51:16;;;;;;;1.08;0.98;;;;;;;19.58;64.14;99767.22;10492096;28;20066;-81
2021/08/02 09:56:20;;;;;;;1.52;1.35;;;;;;;20.06;60.32;99763.72;10509231;28;20090;-81
2021/08/02 10:01:38;;;;;;;2.63;1.63;;;;;;;20.82;58.91;99763.19;10515040;28;20040;-82
2021/08/02 10:06:41;;;;;;;4.07;2.30;;;;;;;20.80;56.18;99758.91;10511254;28;20044;-81
2021/08/02 10:11:43;;;;;;;2.90;2.70;;;;;;;20.23;56.59;99775.75;10492218;28;20048;-81
2021/08/02 10:16:46;;;;;;;3.25;2.80;;;;;;;20.39;56.22;99773.63;10507954;28;20041;-80
2021/08/02 10:21:48;;;;;;;3.42;3.10;;;;;;;20.95;55.67;99760.38;10498789;28;20044;-79
2021/08/02 10:26:58;;;;;;;2.70;2.50;;;;;;;21.12;54.42;99761.72;10495354;28;20396;-80
2021/08/02 10:32:00;;;;;;;2.80;2.60;;;;;;;21.29;54.55;99763.03;10511864;28;20405;-82
2021/08/02 10:37:04;;;;;;;3.30;2.25;;;;;;;21.14;55.54;99754.44;10491879;28;20064;-81
2021/08/02 10:42:16;;;;;;;1.92;1.80;;;;;;;20.65;53.31;99763.66;10490707;28;20056;-80
2021/08/02 10:47:42;;;;;;;1.98;1.67;;;;;;;21.60;51.62;99756.94;10508826;28;20037;-82
2021/08/02 10:52:45;;;;;;;1.23;1.13;;;;;;;21.51;49.52;99751.47;10492146;28;20064;-81
2021/08/02 10:57:58;;;;;;;1.27;1.20;;;;;;;21.68;51.76;99750.94;10491791;28;20434;-80
2021/08/02 11:02:59;;;;;;;3.08;1.45;;;;;;;22.15;49.59;99741.66;10508870;28;20110;-79
2021/08/02 11:08:06;;;;;;;1.40;1.30;;;;;;;23.00;48.88;99735.25;10492119;28;20040;-81
2021/08/02 11:13:07;;;;;;;1.47;1.40;;;;;;;22.49;48.97;99728.09;10511279;28;20127;-80
2021/08/02 11:18:09;;;;;;;1.85;1.10;;;;;;;22.94;48.90;99738.50;10521382;28;20354;-80
2021/08/02 11:23:10;;;;;;;1.08;0.82;;;;;;;23.26;43.86;99721.38;10499706;28;20044;-81
2021/08/02 11:28:12;;;;;;;2.15;1.20;;;;;;;22.57;47.79;99741.63;10520222;28;20048;-81
2021/08/02 11:33:13;;;;;;;1.27;1.17;;;;;;;22.58;49.81;99734.47;10514007;28;20060;-81
2021/08/02 11:38:15;;;;;;;1.30;1.20;;;;;;;22.40;49.14;99735.06;10475763;28;20048;-81
2021/08/02 11:43:17;;;;;;;2.33;1.70;;;;;;;21.53;50.62;99734.34;10506947;28;20086;-80
2021/08/02 11:48:21;;;;;;;1.23;1.10;;;;;;;22.28;50.20;99733.44;10508604;28;20439;-80
2021/08/02 11:53:32;;;;;;;0.98;0.73;;;;;;;23.33;46.58;99728.75;10508244;28;20116;-80
2021/08/02 11:58:43;;;;;;;0.93;0.70;;;;;;;23.49;43.88;99727.34;10508496;28;20064;-81
2021/08/02 12:03:45;;;;;;;0.98;0.60;;;;;;;23.59;42.79;99731.72;10490530;28;20048;-80
2021/08/02 12:08:52;;;;;;;0.80;0.60;;;;;;;24.12;39.82;99715.22;10491734;28;20082;-81
2021/08/02 12:13:54;;;;;;;0.65;0.65;;;;;;;23.83;39.13;99712.56;10490834;28;20074;-81
2021/08/02 12:19:10;;;;;;;1.30;0.55;;;;;;;23.73;41.34;99713.53;10490479;28;20159;-81
2021/08/02 12:24:16;;;;;;;0.80;0.60;;;;;;;23.91;41.83;99725.31;10507694;28;20462;-81
2021/08/02 12:29:22;;;;;;;;;;;;;;;23.76;39.75;99711.44;10489038;28;20142;-81
2021/08/02 12:34:24;;;;;;;0.55;0.55;;;;;;;23.51;40.54;99709.28;10506482;28;19963;-81
2021/08/02 12:39:29;;;;;;;0.60;0.60;;;;;;;23.66;41.84;99714.13;10488102;28;20078;-79
2021/08/02 12:44:31;;;;;;;0.88;0.52;;;;;;;24.09;39.06;99703.94;10488832;28;20048;-83
2021/08/02 12:49:32;;;;;;;0.68;0.50;;;;;;;24.12;39.61;99698.28;10506685;28;20508;-82
2021/08/02 12:54:34;;;;;;;0.98;0.50;;;;;;;24.36;42.22;99705.88;10504568;28;20060;-79
2021/08/02 12:59:35;;;;;;;1.15;0.57;;;;;;;24.02;41.44;99698.28;10506255;28;20466;-82
2021/08/02 13:04:37;;;;;;;1.80;0.60;;;;;;;24.20;43.10;99702.94;10509725;28;20089;-80
2021/08/02 13:09:38;;;;;;;1.40;0.40;;;;;;;23.35;42.87;99701.78;10509298;28;20100;-79
2021/08/02 13:14:40;;;;;;;0.70;0.60;;;;;;;23.27;42.08;99696.25;10491808;28;20112;-80
2021/08/02 13:19:44;;;;;;;0.50;0.50;;;;;;;23.41;42.37;99696.69;10493825;28;20048;-80
2021/08/02 13:30:07;;;;;;;1.08;0.68;;;;;;;23.24;41.65;99701.88;10539100;28;20089;-80
2021/08/02 13:35:08;;;;;;;0.63;0.60;;;;;;;23.62;42.31;99699.25;10540379;28;20036;-80
2021/08/02 13:40:10;;;;;;;1.25;0.80;;;;;;;23.37;42.69;99686.38;10527296;28;20048;-78
2021/08/02 13:45:20;;;;;;;1.00;0.60;;;;;;;23.71;39.68;99694.06;10522431;28;20041;-79
2021/08/02 13:50:22;;;;;;;0.80;0.70;;;;;;;23.38;42.75;99685.41;10523465;28;20041;-78
2021/08/02 13:55:26;;;;;;;3.00;0.70;;;;;;;23.36;43.25;99690.88;10512510;28;20541;-80
2021/08/02 14:00:31;;;;;;;0.95;0.85;;;;;;;22.57;43.95;99693.41;10495476;28;20045;-82
2021/08/02 14:05:37;;;;;;;2.55;0.80;;;;;;;22.07;45.90;99692.41;10512323;28;20040;-80
2021/08/02 14:10:58;;;;;;;1.02;0.75;;;;;;;22.22;45.69;99685.75;10494208;28;20052;-80
2021/08/02 14:16:02;;;;;;;1.80;0.73;;;;;;;21.99;46.77;99689.50;10493673;28;20041;-80
2021/08/02 14:21:12;;;;;;;2.10;0.80;;;;;;;22.12;45.01;99698.25;10495286;28;20154;-80
2021/08/02 14:26:14;;;;;;;1.55;0.73;;;;;;;22.18;45.63;99695.06;10518801;28;20450;-82
2021/08/02 14:31:16;;;;;;;1.38;0.85;;;;;;;22.05;44.99;99705.91;10511950;28;20121;-80
2021/08/02 14:36:19;;;;;;;0.70;0.70;;;;;;;22.24;43.26;99704.38;10493449;28;20151;-81
2021/08/02 14:41:27;;;;;;;1.38;0.70;;;;;;;22.07;44.16;99711.97;10492778;28;20121;-82
2021/08/02 14:46:30;;;;;;;1.65;0.80;;;;;;;21.70;44.55;99708.03;10511051;28;20045;-82
2021/08/02 14:51:34;;;;;;;1.95;0.85;;;;;;;21.67;45.75;99712.66;10491498;28;20052;-79
2021/08/02 14:56:38;;;;;;;1.15;0.80;;;;;;;21.66;46.51;99712.78;10550372;22;20082;-85
2021/08/02 15:01:51;;;;;;;0.75;0.75;;;;;;;21.40;46.64;99710.44;10516825;28;20048;-84
2021/08/02 15:07:01;;;;;;;1.48;1.38;;;;;;;20.80;50.03;99727.69;10521631;28;20449;-84
2021/08/02 15:12:16;;;;;;;1.33;1.00;;;;;;;20.23;55.11;99733.94;10523718;28;20180;-86
2021/08/02 15:23:13;;;;;;;1.40;1.30;;;;;;;19.58;59.09;99729.88;10493908;28;20048;-84
2021/08/02 15:28:26;;;;;;;1.45;1.25;;;;;;;20.21;58.14;99735.84;10493797;28;20040;-84
2021/08/02 15:33:31;;;;;;;1.67;1.20;;;;;;;20.49;57.00;99737.28;10512722;28;20040;-84
2021/08/02 15:38:49;;;;;;;1.58;1.38;;;;;;;20.53;57.53;99736.06;10498658;28;20056;-85
2021/08/02 15:44:05;;;;;;;1.23;1.13;;;;;;;20.54;57.35;99737.78;10498061;28;20047;-84
2021/08/02 15:49:15;;;;;;;1.15;1.05;;;;;;;20.74;55.66;99733.53;10500470;28;20055;-84
2021/08/02 15:54:23;;;;;;;1.65;0.80;;;;;;;22.00;51.27;99724.19;10497009;28;20471;-85
2021/08/02 16:00:23;;;;;;;0.70;0.70;;;;;;;22.93;48.62;99718.00;10511636;28;20044;-85
2021/08/02 16:06:04;;;;;;;0.52;0.52;;;;;;;22.90;47.18;99713.78;10346549;28;20057;-84
2021/08/02 16:11:21;;;;;;;0.95;0.70;;;;;;;22.80;47.10;99722.72;10329373;28;20113;-85
2021/08/02 16:16:48;;;;;;;0.57;0.57;;;;;;;21.90;47.40;99717.91;10327340;28;20049;-83
2021/08/02 16:22:17;;;;;;;1.23;0.60;;;;;;;21.16;49.77;99728.41;10326213;28;20082;-85
2021/08/02 16:28:14;;;;;;;0.45;0.45;;;;;;;20.89;49.09;99718.13;10312065;28;20120;-85
2021/08/02 16:34:41;;;;;;;0.57;0.52;;;;;;;20.63;49.09;99731.72;10273743;28;20051;-85
2021/08/02 16:39:57;;;;;;;0.60;0.60;;;;;;;20.46;50.17;99725.97;10289951;28;20050;-84
2021/08/02 16:45:12;;;;;;;0.55;0.40;;;;;;;20.30;49.75;99721.81;10381275;28;20538;-85
2021/08/02 16:50:14;;;;;;;0.55;0.50;;;;;;;20.18;50.68;99717.41;10381222;28;20050;-85
2021/08/02 16:55:17;;;;;;;0.70;0.50;;;;;;;20.37;51.13;99730.19;10382203;28;20149;-85
2021/08/02 17:00:22;;;;;;;0.50;0.50;;;;;;;20.37;50.21;99725.72;10366516;28;20125;-87
2021/08/02 17:05:37;;;;;;;0.68;0.57;;;;;;;20.16;50.81;99733.53;10385000;28;20061;-85
2021/08/02 17:10:42;;;;;;;0.68;0.60;;;;;;;20.01;51.33;99740.06;10466681;28;20143;-86
2021/08/02 17:16:05;;;;;;;0.85;0.60;;;;;;;19.69;51.61;99736.25;10497296;28;20099;-85
2021/08/02 17:21:16;;;;;;;0.80;0.80;;;;;;;19.74;51.78;99731.44;10403267;28;20065;-85
2021/08/02 17:26:24;;;;;;;1.75;0.70;;;;;;;19.60;52.58;99729.75;10399691;28;20117;-85
2021/08/02 17:31:25;;;;;;;1.13;0.80;;;;;;;19.55;52.03;99734.59;10408783;28;20453;-84
2021/08/02 17:36:29;;;;;;;1.25;0.98;;;;;;;19.44;52.77;99737.19;10389949;28;20046;-85
2021/08/02 17:41:31;;;;;;;0.80;0.80;;;;;;;19.41;54.14;99743.59;10410100;28;20087;-84
2021/08/02 17:46:34;;;;;;;0.73;0.73;;;;;;;19.35;54.05;99744.91;10431550;28;20161;-83
2021/08/02 17:51:37;;;;;;;0.77;0.77;;;;;;;19.27;54.83;99757.06;10485596;28;20066;-85
2021/08/02 17:56:38;;;;;;;0.80;0.80;;;;;;;19.22;55.56;99768.06;10495767;28;20048;-84
2021/08/02 18:01:40;;;;;;;2.47;1.00;;;;;;;19.39;55.67;99782.84;10477344;28;20076;-83
2021/08/02 18:06:45;;;;;;;0.70;0.70;;;;;;;19.27;56.37;99781.06;10494032;28;20037;-83
2021/08/02 18:11:47;;;;;;;0.90;0.90;;;;;;;19.44;55.62;99786.03;10510240;28;20543;-83
2021/08/02 18:16:49;;;;;;;0.80;0.80;;;;;;;19.27;57.23;99786.38;10492075;28;20055;-84
2021/08/02 18:21:51;;;;;;;4.95;0.95;;;;;;;19.23;58.33;99784.91;10509065;28;20044;-85
2021/08/02 18:26:53;;;;;;;1.05;0.95;;;;;;;19.23;58.52;99787.56;10494065;28;20041;-84
2021/08/02 18:32:09;;;;;;;1.17;0.95;;;;;;;19.13;58.72;99793.56;10513123;28;20434;-87
2021/08/02 18:37:52;;;;;;;1.05;0.80;;;;;;;19.10;58.36;99801.75;10500570;28;20057;-85
2021/08/02 18:49:30;;;;;;;0.95;0.95;;;;;;;18.75;59.54;99814.88;10417218;28;20426;-87
2021/08/02 18:54:32;;;;;;;1.50;1.40;;;;;;;18.60;60.63;99827.41;10413288;28;20109;-87
2021/08/02 18:59:34;;;;;;;1.40;1.20;;;;;;;18.55;60.95;99828.66;10414123;28;20065;-86
2021/08/02 19:04:52;;;;;;;1.20;1.10;;;;;;;18.54;61.04;99837.59;10401512;28;20053;-85
2021/08/02 19:09:58;;;;;;;1.15;0.88;;;;;;;18.43;61.29;99835.69;10399970;28;20111;-87
2021/08/02 19:15:08;;;;;;;1.65;0.98;;;;;;;18.33;61.36;99839.94;10398125;28;20041;-87
2021/08/02 19:20:56;;;;;;;1.50;1.23;;;;;;;18.65;60.25;99845.72;10397038;28;20134;-86
2021/08/02 19:26:47;;;;;;;2.00;1.40;;;;;;;18.81;59.61;99854.38;10466430;28;20067;-85
2021/08/02 19:32:01;;;;;;;1.23;1.10;;;;;;;18.38;60.29;99840.47;10500230;28;20116;-86
2021/08/02 19:37:27;;;;;;;1.55;1.00;;;;;;;18.05;62.01;99863.00;10507954;28;20157;-87
2021/08/02 19:43:29;;;;;;;1.67;0.90;;;;;;;17.87;62.24;99859.75;10503545;28;20040;-86
2021/08/02 19:50:05;;;;;;;;;;;;;;;;;;;;;
2021/08/02 19:55:30;;;;;;;1.03;1.03;;;;;;;17.82;64.07;99863.66;10522107;28;20064;-86
2021/08/02 20:01:32;;;;;;;;;;;;;;;;;;;;;
2021/08/02 20:07:23;;;;;;;1.58;1.48;;;;;;;17.37;66.81;99870.91;10500941;28;20528;-88
2021/08/02 20:12:47;;;;;;;1.85;1.45;;;;;;;17.21;67.05;99865.69;10509184;28;20044;-87
2021/08/02 20:17:49;;;;;;;1.30;1.20;;;;;;;17.28;67.30;99860.84;10541722;28;20032;-86
2021/08/02 20:22:57;;;;;;;1.65;1.20;;;;;;;17.21;67.69;99856.88;10524327;28;20069;-86
2021/08/02 20:28:02;;;;;;;1.40;1.30;;;;;;;16.97;68.79;99857.44;10524019;28;20085;-86
2021/08/02 20:33:09;;;;;;;1.15;1.13;;;;;;;16.88;69.02;99864.16;10523581;28;20024;-85
2021/08/02 20:38:13;;;;;;;2.10;1.50;;;;;;;16.75;69.34;99873.81;10540206;28;20036;-86
2021/08/02 20:43:15;;;;;;;1.67;1.20;;;;;;;16.54;70.47;99875.88;10506316;28;20039;-86
2021/08/02 20:48:19;;;;;;;1.70;1.60;;;;;;;16.49;71.03;99872.66;10522926;28;20040;-85
2021/08/02 20:53:27;;;;;;;1.70;1.60;;;;;;;16.51;71.08;99870.78;10521917;22;20048;-85
2021/08/02 20:58:30;;;;;;;2.53;1.80;;;;;;;16.34;71.92;99869.09;10491714;28;20119;-84
2021/08/02 21:04:07;;;;;;;1.80;1.63;;;;;;;16.21;72.01;99872.56;10490776;28;20232;-84
2021/08/02 21:09:17;;;;;;;2.75;1.85;;;;;;;16.02;72.46;99878.88;10488818;28;20070;-84
2021/08/02 21:14:25;;;;;;;1.85;1.50;;;;;;;15.93;72.43;99882.06;10513889;28;20118;-84
2021/08/02 21:19:37;;;;;;;1.67;1.55;;;;;;;15.87;72.44;99879.75;10510379;28;20048;-83
2021/08/02 21:24:43;;;;;;;1.60;1.50;;;;;;;15.83;72.50;99886.19;10509938;28;20040;-83
2021/08/02 21:29:46;;;;;;;1.37;1.27;;;;;;;15.73;72.06;99883.19;10491004;28;20467;-82
2021/08/02 21:34:48;;;;;;;2.38;1.40;;;;;;;15.76;72.01;99893.63;10495031;28;20052;-83
2021/08/02 21:39:50;;;;;;;1.50;1.30;;;;;;;15.68;71.93;99897.63;10512390;28;20082;-83
2021/08/02 21:44:52;;;;;;;1.92;1.33;;;;;;;15.77;71.63;99892.69;10490707;28;20056;-83
2021/08/02 21:49:57;;;;;;;1.98;1.30;;;;;;;15.67;71.39;99886.19;10488648;28;20466;-84
2021/08/02 21:54:58;;;;;;;1.40;1.30;;;;;;;15.53;71.55;99892.19;10487582;28;20044;-83
2021/08/02 22:00:00;;;;;;;1.65;1.55;;;;;;;15.50;71.68;99887.06;10472348;28;20562;-84
2021/08/02 22:05:02;;;;;;;1.38;1.27;;;;;;;15.49;72.18;99890.63;10490368;28;20059;-84
2021/08/02 22:10:04;;;;;;;1.60;1.50;;;;;;;15.49;72.52;99895.09;10477480;28;20048;-85
2021/08/02 22:15:06;;;;;;;2.17;1.40;;;;;;;15.34;72.52;99892.31;10489657;28;20052;-84
2021/08/02 22:20:08;;;;;;;1.58;1.48;;;;;;;15.21;73.14;99893.91;10498882;28;20114;-84
2021/08/02 22:25:11;;;;;;;1.70;1.50;;;;;;;15.40;71.79;99891.13;10517814;28;20040;-84
2021/08/02 22:30:14;;;;;;;1.40;1.30;;;;;;;15.21;71.87;99896.56;10498747;28;20049;-85
2021/08/02 22:35:15;;;;;;;1.40;1.30;;;;;;;15.01;73.08;99891.50;10498167;28;20070;-84
2021/08/02 22:40:18;;;;;;;1.83;1.58;;;;;;;14.96;73.14;99902.28;10513309;28;20069;-85
2021/08/02 22:45:20;;;;;;;2.20;1.50;;;;;;;14.96;72.81;99893.50;10523496;28;20100;-86
2021/08/02 22:50:22;;;;;;;1.58;1.45;;;;;;;14.96;73.22;99896.13;10508414;28;20090;-87
2021/08/02 22:55:24;;;;;;;1.65;1.50;;;;;;;14.95;72.89;99905.03;10506202;28;20132;-87
2021/08/02 23:00:29;;;;;;;1.35;1.20;;;;;;;14.92;72.48;99906.06;10504420;28;20072;-87
2021/08/02 23:05:32;;;;;;;1.48;1.30;;;;;;;15.00;72.48;99906.47;10521015;28;20044;-87
2021/08/02 23:10:45;;;;;;;1.27;1.17;;;;;;;15.08;72.67;99911.38;10521302;28;20091;-88
2021/08/02 23:15:48;;;;;;;1.42;1.33;;;;;;;14.97;73.22;99914.59;10499832;28;20048;-87
2021/08/02 23:20:52;;;;;;;1.75;1.40;;;;;;;15.01;72.78;99908.22;10515843;28;20056;-86
2021/08/02 23:26:02;;;;;;;1.92;1.60;;;;;;;15.11;72.62;99909.44;10481854;28;20135;-86
2021/08/02 23:31:08;;;;;;;1.50;1.40;;;;;;;15.04;72.18;99907.19;10513851;28;20096;-87
2021/08/02 23:36:11;;;;;;;1.50;1.40;;;;;;;14.77;73.05;99902.38;10520248;28;20051;-86
2021/08/02 23:41:13;;;;;;;1.75;1.63;;;;;;;14.76;73.28;99905.13;10519111;28;20111;-86
2021/08/02 23:46:14;;;;;;;1.63;1.45;;;;;;;14.65;73.33;99910.94;10504050;28;20076;-86
2021/08/02 23:51:16;;;;;;;1.88;1.50;;;;;;;14.64;73.47;99902.16;10519550;28;20120;-86
2021/08/02 23:56:18;;;;;;;1.70;1.60;;;;;;;14.64;73.58;99902.16;10519113;28;20067;-87
